sensor_id;sensor_type;location;lat;lon;timestamp;P1;durP1;ratioP1;P2;durP2;ratioP2
46815;SDS011;32787;53.316;8.670;2023-07-13T00:01:46;7.95;;;3.85;;
46815;SDS011;32787;53.316;8.670;2023-07-13T00:06:45;9.27;;;4.07;;
46815;SDS011;32787;53.316;8.670;2023-07-13T00:09:15;5.82;;;3.72;;
46815;SDS011;32787;53.316;8.670;2023-07-13T00:11:41;7.72;;;4.47;;
46815;SDS011;32787;53.316;8.670;2023-07-13T00:14:08;7.30;;;3.92;;
46815;SDS011;32787;53.316;8.670;2023-07-13T00:16:35;9.68;;;5.25;;
46815;SDS011;32787;53.316;8.670;2023-07-13T00:19:02;8.80;;;4.75;;
46815;SDS011;32787;53.316;8.670;2023-07-13T00:21:28;12.18;;;5.45;;
46815;SDS011;32787;53.316;8.670;2023-07-13T00:23:54;8.57;;;5.45;;
46815;SDS011;32787;53.316;8.670;2023-07-13T00:26:19;8.98;;;5.78;;
46815;SDS011;32787;53.316;8.670;2023-07-13T00:28:45;13.00;;;5.85;;
46815;SDS011;32787;53.316;8.670;2023-07-13T00:31:11;10.13;;;5.53;;
46815;SDS011;32787;53.316;8.670;2023-07-13T00:33:39;10.68;;;5.68;;
46815;SDS011;32787;53.316;8.670;2023-07-13T00:36:05;8.23;;;5.57;;
46815;SDS011;32787;53.316;8.670;2023-07-13T00:38:31;10.43;;;5.97;;
46815;SDS011;32787;53.316;8.670;2023-07-13T00:40:57;10.73;;;5.60;;
46815;SDS011;32787;53.316;8.670;2023-07-13T00:43:24;11.93;;;5.95;;
46815;SDS011;32787;53.316;8.670;2023-07-13T00:48:19;8.35;;;6.25;;
46815;SDS011;32787;53.316;8.670;2023-07-13T00:50:47;8.88;;;5.85;;
46815;SDS011;32787;53.316;8.670;2023-07-13T00:53:15;10.18;;;6.65;;
46815;SDS011;32787;53.316;8.670;2023-07-13T00:55:42;8.13;;;5.97;;
46815;SDS011;32787;53.316;8.670;2023-07-13T00:58:09;11.23;;;6.00;;
46815;SDS011;32787;53.316;8.670;2023-07-13T01:00:35;11.75;;;6.32;;
46815;SDS011;32787;53.316;8.670;2023-07-13T01:03:03;8.48;;;5.85;;
46815;SDS011;32787;53.316;8.670;2023-07-13T01:05:30;10.77;;;6.35;;
46815;SDS011;32787;53.316;8.670;2023-07-13T01:07:57;9.10;;;5.20;;
46815;SDS011;32787;53.316;8.670;2023-07-13T01:10:24;10.25;;;6.20;;
46815;SDS011;32787;53.316;8.670;2023-07-13T01:12:50;10.30;;;5.93;;
46815;SDS011;32787;53.316;8.670;2023-07-13T01:18:27;12.07;;;6.00;;
46815;SDS011;32787;53.316;8.670;2023-07-13T01:20:57;11.80;;;6.80;;
46815;SDS011;32787;53.316;8.670;2023-07-13T01:23:25;11.32;;;6.22;;
46815;SDS011;32787;53.316;8.670;2023-07-13T01:25:53;10.23;;;6.78;;
46815;SDS011;32787;53.316;8.670;2023-07-13T01:28:20;8.23;;;5.95;;
46815;SDS011;32787;53.316;8.670;2023-07-13T01:30:46;11.93;;;6.15;;
46815;SDS011;32787;53.316;8.670;2023-07-13T01:33:13;13.32;;;6.95;;
46815;SDS011;32787;53.316;8.670;2023-07-13T01:35:40;15.82;;;6.88;;
46815;SDS011;32787;53.316;8.670;2023-07-13T01:38:06;11.38;;;6.65;;
46815;SDS011;32787;53.316;8.670;2023-07-13T01:40:33;11.07;;;6.50;;
46815;SDS011;32787;53.316;8.670;2023-07-13T01:43:00;11.82;;;6.70;;
46815;SDS011;32787;53.316;8.670;2023-07-13T01:45:25;9.98;;;6.35;;
46815;SDS011;32787;53.316;8.670;2023-07-13T01:47:51;10.73;;;6.45;;
46815;SDS011;32787;53.316;8.670;2023-07-13T01:50:17;11.05;;;6.50;;
46815;SDS011;32787;53.316;8.670;2023-07-13T01:52:42;13.45;;;6.70;;
46815;SDS011;32787;53.316;8.670;2023-07-13T01:55:08;13.07;;;6.55;;
46815;SDS011;32787;53.316;8.670;2023-07-13T01:57:34;9.95;;;5.88;;
46815;SDS011;32787;53.316;8.670;2023-07-13T02:00:02;11.23;;;6.90;;
46815;SDS011;32787;53.316;8.670;2023-07-13T02:02:30;11.38;;;6.25;;
46815;SDS011;32787;53.316;8.670;2023-07-13T02:04:56;10.80;;;6.28;;
46815;SDS011;32787;53.316;8.670;2023-07-13T02:07:21;11.02;;;6.30;;
46815;SDS011;32787;53.316;8.670;2023-07-13T02:09:47;10.43;;;6.18;;
46815;SDS011;32787;53.316;8.670;2023-07-13T02:12:12;13.10;;;6.97;;
46815;SDS011;32787;53.316;8.670;2023-07-13T02:14:38;13.80;;;6.45;;
46815;SDS011;32787;53.316;8.670;2023-07-13T02:17:04;10.82;;;6.32;;
46815;SDS011;32787;53.316;8.670;2023-07-13T02:19:30;15.10;;;6.38;;
46815;SDS011;32787;53.316;8.670;2023-07-13T02:21:56;14.60;;;7.07;;
46815;SDS011;32787;53.316;8.670;2023-07-13T02:24:22;10.30;;;7.25;;
46815;SDS011;32787;53.316;8.670;2023-07-13T02:26:48;10.55;;;7.00;;
46815;SDS011;32787;53.316;8.670;2023-07-13T02:29:14;12.15;;;6.57;;
46815;SDS011;32787;53.316;8.670;2023-07-13T02:31:39;12.55;;;6.57;;
46815;SDS011;32787;53.316;8.670;2023-07-13T02:34:05;12.93;;;6.13;;
46815;SDS011;32787;53.316;8.670;2023-07-13T02:36:31;12.65;;;6.88;;
46815;SDS011;32787;53.316;8.670;2023-07-13T02:39:00;12.77;;;7.43;;
46815;SDS011;32787;53.316;8.670;2023-07-13T02:41:28;14.05;;;6.88;;
46815;SDS011;32787;53.316;8.670;2023-07-13T02:43:54;12.13;;;6.38;;
46815;SDS011;32787;53.316;8.670;2023-07-13T02:46:27;13.88;;;6.85;;
46815;SDS011;32787;53.316;8.670;2023-07-13T02:48:53;13.80;;;7.30;;
46815;SDS011;32787;53.316;8.670;2023-07-13T02:51:19;12.82;;;6.43;;
46815;SDS011;32787;53.316;8.670;2023-07-13T02:53:45;13.73;;;6.07;;
46815;SDS011;32787;53.316;8.670;2023-07-13T02:56:10;11.27;;;6.18;;
46815;SDS011;32787;53.316;8.670;2023-07-13T02:58:36;11.48;;;6.28;;
46815;SDS011;32787;53.316;8.670;2023-07-13T03:01:06;14.73;;;6.00;;
46815;SDS011;32787;53.316;8.670;2023-07-13T03:03:35;14.15;;;5.60;;
46815;SDS011;32787;53.316;8.670;2023-07-13T03:06:01;13.80;;;6.18;;
46815;SDS011;32787;53.316;8.670;2023-07-13T03:08:28;9.50;;;6.22;;
46815;SDS011;32787;53.316;8.670;2023-07-13T03:11:00;11.75;;;6.50;;
46815;SDS011;32787;53.316;8.670;2023-07-13T03:13:26;9.80;;;6.30;;
46815;SDS011;32787;53.316;8.670;2023-07-13T03:15:52;13.60;;;6.38;;
46815;SDS011;32787;53.316;8.670;2023-07-13T03:18:18;12.40;;;6.28;;
46815;SDS011;32787;53.316;8.670;2023-07-13T03:20:43;12.30;;;6.32;;
46815;SDS011;32787;53.316;8.670;2023-07-13T03:23:09;13.30;;;6.60;;
46815;SDS011;32787;53.316;8.670;2023-07-13T03:25:34;11.40;;;6.15;;
46815;SDS011;32787;53.316;8.670;2023-07-13T03:28:00;12.18;;;6.07;;
46815;SDS011;32787;53.316;8.670;2023-07-13T03:30:26;14.38;;;6.45;;
46815;SDS011;32787;53.316;8.670;2023-07-13T03:32:51;15.98;;;7.13;;
46815;SDS011;32787;53.316;8.670;2023-07-13T03:35:17;14.63;;;6.43;;
46815;SDS011;32787;53.316;8.670;2023-07-13T03:37:43;14.30;;;6.65;;
46815;SDS011;32787;53.316;8.670;2023-07-13T03:40:08;12.02;;;6.05;;
46815;SDS011;32787;53.316;8.670;2023-07-13T03:42:35;15.98;;;6.32;;
46815;SDS011;32787;53.316;8.670;2023-07-13T03:45:00;12.65;;;6.70;;
46815;SDS011;32787;53.316;8.670;2023-07-13T03:47:26;13.90;;;6.28;;
46815;SDS011;32787;53.316;8.670;2023-07-13T03:49:52;12.82;;;5.82;;
46815;SDS011;32787;53.316;8.670;2023-07-13T03:52:18;10.27;;;5.65;;
46815;SDS011;32787;53.316;8.670;2023-07-13T03:54:44;18.05;;;6.20;;
46815;SDS011;32787;53.316;8.670;2023-07-13T03:57:10;11.43;;;6.05;;
46815;SDS011;32787;53.316;8.670;2023-07-13T03:59:35;13.93;;;6.20;;
46815;SDS011;32787;53.316;8.670;2023-07-13T04:02:01;11.07;;;5.65;;
46815;SDS011;32787;53.316;8.670;2023-07-13T04:04:29;14.68;;;5.90;;
46815;SDS011;32787;53.316;8.670;2023-07-13T04:06:56;11.85;;;5.72;;
46815;SDS011;32787;53.316;8.670;2023-07-13T04:09:23;19.40;;;5.97;;
46815;SDS011;32787;53.316;8.670;2023-07-13T04:11:50;13.63;;;5.35;;
46815;SDS011;32787;53.316;8.670;2023-07-13T04:14:15;14.63;;;5.53;;
46815;SDS011;32787;53.316;8.670;2023-07-13T04:16:41;15.43;;;6.07;;
46815;SDS011;32787;53.316;8.670;2023-07-13T04:19:07;20.90;;;5.85;;
46815;SDS011;32787;53.316;8.670;2023-07-13T04:21:35;13.30;;;5.60;;
46815;SDS011;32787;53.316;8.670;2023-07-13T04:24:01;10.85;;;5.32;;
46815;SDS011;32787;53.316;8.670;2023-07-13T04:26:28;14.27;;;4.47;;
46815;SDS011;32787;53.316;8.670;2023-07-13T04:28:54;16.02;;;5.35;;
46815;SDS011;32787;53.316;8.670;2023-07-13T04:31:21;13.93;;;4.65;;
46815;SDS011;32787;53.316;8.670;2023-07-13T04:33:47;10.48;;;4.60;;
46815;SDS011;32787;53.316;8.670;2023-07-13T04:36:14;20.13;;;5.88;;
46815;SDS011;32787;53.316;8.670;2023-07-13T04:38:40;12.82;;;4.68;;
46815;SDS011;32787;53.316;8.670;2023-07-13T04:41:07;17.00;;;4.82;;
46815;SDS011;32787;53.316;8.670;2023-07-13T04:43:33;12.63;;;4.20;;
46815;SDS011;32787;53.316;8.670;2023-07-13T04:46:04;14.73;;;4.63;;
46815;SDS011;32787;53.316;8.670;2023-07-13T04:48:31;11.45;;;4.43;;
46815;SDS011;32787;53.316;8.670;2023-07-13T04:50:57;15.63;;;5.13;;
46815;SDS011;32787;53.316;8.670;2023-07-13T04:53:23;14.52;;;4.15;;
46815;SDS011;32787;53.316;8.670;2023-07-13T04:55:49;14.32;;;4.53;;
46815;SDS011;32787;53.316;8.670;2023-07-13T04:58:15;9.50;;;4.28;;
46815;SDS011;32787;53.316;8.670;2023-07-13T05:00:42;12.38;;;4.45;;
46815;SDS011;32787;53.316;8.670;2023-07-13T05:03:07;15.70;;;4.32;;
46815;SDS011;32787;53.316;8.670;2023-07-13T05:05:33;12.80;;;4.30;;
46815;SDS011;32787;53.316;8.670;2023-07-13T05:07:59;15.30;;;5.07;;
46815;SDS011;32787;53.316;8.670;2023-07-13T05:10:25;13.70;;;4.78;;
46815;SDS011;32787;53.316;8.670;2023-07-13T05:12:50;13.57;;;4.72;;
46815;SDS011;32787;53.316;8.670;2023-07-13T05:15:16;15.02;;;4.53;;
46815;SDS011;32787;53.316;8.670;2023-07-13T05:17:46;12.82;;;4.05;;
46815;SDS011;32787;53.316;8.670;2023-07-13T05:20:12;15.93;;;4.70;;
46815;SDS011;32787;53.316;8.670;2023-07-13T05:22:37;13.25;;;4.38;;
46815;SDS011;32787;53.316;8.670;2023-07-13T05:25:06;15.60;;;4.72;;
46815;SDS011;32787;53.316;8.670;2023-07-13T05:27:33;15.37;;;4.37;;
46815;SDS011;32787;53.316;8.670;2023-07-13T05:29:59;16.55;;;4.65;;
46815;SDS011;32787;53.316;8.670;2023-07-13T05:32:25;15.10;;;4.30;;
46815;SDS011;32787;53.316;8.670;2023-07-13T05:34:51;14.13;;;4.13;;
46815;SDS011;32787;53.316;8.670;2023-07-13T05:37:17;13.95;;;4.32;;
46815;SDS011;32787;53.316;8.670;2023-07-13T05:39:43;15.20;;;4.47;;
46815;SDS011;32787;53.316;8.670;2023-07-13T05:42:08;16.02;;;4.57;;
46815;SDS011;32787;53.316;8.670;2023-07-13T05:44:34;16.20;;;4.47;;
46815;SDS011;32787;53.316;8.670;2023-07-13T05:46:59;10.32;;;3.92;;
46815;SDS011;32787;53.316;8.670;2023-07-13T05:49:25;13.35;;;4.15;;
46815;SDS011;32787;53.316;8.670;2023-07-13T05:51:51;13.52;;;4.03;;
46815;SDS011;32787;53.316;8.670;2023-07-13T05:54:16;15.18;;;4.60;;
46815;SDS011;32787;53.316;8.670;2023-07-13T05:56:42;15.07;;;4.78;;
46815;SDS011;32787;53.316;8.670;2023-07-13T05:59:07;11.38;;;4.25;;
46815;SDS011;32787;53.316;8.670;2023-07-13T06:01:33;16.27;;;4.82;;
46815;SDS011;32787;53.316;8.670;2023-07-13T06:03:59;14.05;;;4.07;;
46815;SDS011;32787;53.316;8.670;2023-07-13T06:06:24;14.68;;;4.20;;
46815;SDS011;32787;53.316;8.670;2023-07-13T06:08:50;14.68;;;4.90;;
46815;SDS011;32787;53.316;8.670;2023-07-13T06:11:16;15.45;;;3.92;;
46815;SDS011;32787;53.316;8.670;2023-07-13T06:13:44;12.60;;;4.28;;
46815;SDS011;32787;53.316;8.670;2023-07-13T06:16:10;20.38;;;4.63;;
46815;SDS011;32787;53.316;8.670;2023-07-13T06:18:37;17.83;;;4.63;;
46815;SDS011;32787;53.316;8.670;2023-07-13T06:21:09;16.15;;;4.40;;
46815;SDS011;32787;53.316;8.670;2023-07-13T06:23:36;17.23;;;4.72;;
46815;SDS011;32787;53.316;8.670;2023-07-13T06:26:03;16.10;;;4.60;;
46815;SDS011;32787;53.316;8.670;2023-07-13T06:28:29;17.75;;;5.38;;
46815;SDS011;32787;53.316;8.670;2023-07-13T06:30:56;19.95;;;4.72;;
46815;SDS011;32787;53.316;8.670;2023-07-13T06:33:22;14.98;;;4.70;;
46815;SDS011;32787;53.316;8.670;2023-07-13T06:35:48;15.57;;;4.95;;
46815;SDS011;32787;53.316;8.670;2023-07-13T06:38:13;14.43;;;4.95;;
46815;SDS011;32787;53.316;8.670;2023-07-13T06:40:39;15.55;;;5.13;;
46815;SDS011;32787;53.316;8.670;2023-07-13T06:43:05;19.38;;;5.70;;
46815;SDS011;32787;53.316;8.670;2023-07-13T06:45:32;18.00;;;6.10;;
46815;SDS011;32787;53.316;8.670;2023-07-13T06:48:05;18.02;;;4.90;;
46815;SDS011;32787;53.316;8.670;2023-07-13T06:50:30;13.00;;;4.80;;
46815;SDS011;32787;53.316;8.670;2023-07-13T06:52:56;16.10;;;4.97;;
46815;SDS011;32787;53.316;8.670;2023-07-13T06:55:22;16.52;;;6.40;;
46815;SDS011;32787;53.316;8.670;2023-07-13T06:57:47;15.13;;;4.93;;
46815;SDS011;32787;53.316;8.670;2023-07-13T07:00:13;14.30;;;5.13;;
46815;SDS011;32787;53.316;8.670;2023-07-13T07:02:39;19.42;;;6.45;;
46815;SDS011;32787;53.316;8.670;2023-07-13T07:05:05;18.75;;;6.57;;
46815;SDS011;32787;53.316;8.670;2023-07-13T07:07:30;17.35;;;5.80;;
46815;SDS011;32787;53.316;8.670;2023-07-13T07:09:56;22.13;;;5.22;;
46815;SDS011;32787;53.316;8.670;2023-07-13T07:12:21;19.25;;;6.47;;
46815;SDS011;32787;53.316;8.670;2023-07-13T07:14:47;17.83;;;6.32;;
46815;SDS011;32787;53.316;8.670;2023-07-13T07:17:13;14.90;;;5.82;;
46815;SDS011;32787;53.316;8.670;2023-07-13T07:19:38;16.52;;;5.65;;
46815;SDS011;32787;53.316;8.670;2023-07-13T07:22:04;16.63;;;5.50;;
46815;SDS011;32787;53.316;8.670;2023-07-13T07:24:29;13.73;;;5.72;;
46815;SDS011;32787;53.316;8.670;2023-07-13T07:26:55;19.63;;;6.32;;
46815;SDS011;32787;53.316;8.670;2023-07-13T07:29:21;16.10;;;5.78;;
46815;SDS011;32787;53.316;8.670;2023-07-13T07:31:47;13.52;;;5.05;;
46815;SDS011;32787;53.316;8.670;2023-07-13T07:34:12;17.40;;;5.90;;
46815;SDS011;32787;53.316;8.670;2023-07-13T07:36:38;18.85;;;5.97;;
46815;SDS011;32787;53.316;8.670;2023-07-13T07:39:04;17.80;;;5.18;;
46815;SDS011;32787;53.316;8.670;2023-07-13T07:41:30;15.48;;;5.22;;
46815;SDS011;32787;53.316;8.670;2023-07-13T07:43:55;16.17;;;5.10;;
46815;SDS011;32787;53.316;8.670;2023-07-13T07:46:21;16.52;;;5.03;;
46815;SDS011;32787;53.316;8.670;2023-07-13T07:48:46;13.30;;;4.90;;
46815;SDS011;32787;53.316;8.670;2023-07-13T07:51:12;15.23;;;4.97;;
46815;SDS011;32787;53.316;8.670;2023-07-13T07:53:37;13.68;;;4.97;;
46815;SDS011;32787;53.316;8.670;2023-07-13T07:56:03;12.68;;;5.07;;
46815;SDS011;32787;53.316;8.670;2023-07-13T07:58:29;16.33;;;5.35;;
46815;SDS011;32787;53.316;8.670;2023-07-13T08:01:01;14.50;;;4.90;;
46815;SDS011;32787;53.316;8.670;2023-07-13T08:03:28;16.38;;;5.13;;
46815;SDS011;32787;53.316;8.670;2023-07-13T08:05:53;13.32;;;4.97;;
46815;SDS011;32787;53.316;8.670;2023-07-13T08:08:19;16.13;;;4.88;;
46815;SDS011;32787;53.316;8.670;2023-07-13T08:10:45;15.13;;;5.20;;
46815;SDS011;32787;53.316;8.670;2023-07-13T08:13:10;14.90;;;4.57;;
46815;SDS011;32787;53.316;8.670;2023-07-13T08:15:36;15.35;;;4.63;;
46815;SDS011;32787;53.316;8.670;2023-07-13T08:18:02;11.30;;;4.15;;
46815;SDS011;32787;53.316;8.670;2023-07-13T08:20:28;13.23;;;4.35;;
46815;SDS011;32787;53.316;8.670;2023-07-13T08:22:53;13.07;;;4.20;;
46815;SDS011;32787;53.316;8.670;2023-07-13T08:25:19;12.80;;;4.57;;
46815;SDS011;32787;53.316;8.670;2023-07-13T08:27:45;11.93;;;4.18;;
46815;SDS011;32787;53.316;8.670;2023-07-13T08:30:11;13.57;;;4.63;;
46815;SDS011;32787;53.316;8.670;2023-07-13T08:32:37;11.18;;;4.35;;
46815;SDS011;32787;53.316;8.670;2023-07-13T08:35:03;14.55;;;4.53;;
46815;SDS011;32787;53.316;8.670;2023-07-13T08:37:29;16.55;;;4.50;;
46815;SDS011;32787;53.316;8.670;2023-07-13T08:39:55;11.35;;;4.82;;
46815;SDS011;32787;53.316;8.670;2023-07-13T08:45:13;8.85;;;3.78;;
46815;SDS011;32787;53.316;8.670;2023-07-13T08:47:42;16.27;;;4.40;;
46815;SDS011;32787;53.316;8.670;2023-07-13T08:50:14;14.10;;;4.25;;
46815;SDS011;32787;53.316;8.670;2023-07-13T08:52:43;13.57;;;4.05;;
46815;SDS011;32787;53.316;8.670;2023-07-13T08:55:14;12.13;;;4.72;;
46815;SDS011;32787;53.316;8.670;2023-07-13T08:58:00;10.32;;;3.72;;
46815;SDS011;32787;53.316;8.670;2023-07-13T09:00:41;10.90;;;3.70;;
46815;SDS011;32787;53.316;8.670;2023-07-13T09:03:22;9.77;;;3.38;;
46815;SDS011;32787;53.316;8.670;2023-07-13T09:05:53;10.82;;;3.40;;
46815;SDS011;32787;53.316;8.670;2023-07-13T09:17:05;6.43;;;2.90;;
46815;SDS011;32787;53.316;8.670;2023-07-13T09:19:36;8.90;;;2.97;;
46815;SDS011;32787;53.316;8.670;2023-07-13T09:22:03;9.60;;;3.00;;
46815;SDS011;32787;53.316;8.670;2023-07-13T09:24:38;7.35;;;2.88;;
46815;SDS011;32787;53.316;8.670;2023-07-13T09:27:17;8.68;;;2.75;;
46815;SDS011;32787;53.316;8.670;2023-07-13T09:30:02;7.53;;;2.70;;
46815;SDS011;32787;53.316;8.670;2023-07-13T09:32:48;6.53;;;2.40;;
46815;SDS011;32787;53.316;8.670;2023-07-13T09:35:18;7.55;;;2.30;;
46815;SDS011;32787;53.316;8.670;2023-07-13T09:37:46;10.20;;;2.50;;
46815;SDS011;32787;53.316;8.670;2023-07-13T09:43:05;8.82;;;2.20;;
46815;SDS011;32787;53.316;8.670;2023-07-13T09:45:35;8.57;;;2.50;;
46815;SDS011;32787;53.316;8.670;2023-07-13T09:48:06;8.10;;;2.55;;
46815;SDS011;32787;53.316;8.670;2023-07-13T09:50:35;10.15;;;2.60;;
46815;SDS011;32787;53.316;8.670;2023-07-13T09:53:02;6.75;;;2.20;;
46815;SDS011;32787;53.316;8.670;2023-07-13T09:55:32;9.18;;;2.00;;
46815;SDS011;32787;53.316;8.670;2023-07-13T10:00:36;6.38;;;2.30;;
46815;SDS011;32787;53.316;8.670;2023-07-13T10:03:09;9.70;;;2.92;;
46815;SDS011;32787;53.316;8.670;2023-07-13T10:05:44;5.95;;;2.00;;
46815;SDS011;32787;53.316;8.670;2023-07-13T10:10:53;5.25;;;1.95;;
46815;SDS011;32787;53.316;8.670;2023-07-13T10:13:35;6.85;;;2.30;;
46815;SDS011;32787;53.316;8.670;2023-07-13T10:16:02;6.30;;;2.20;;
46815;SDS011;32787;53.316;8.670;2023-07-13T10:18:31;6.65;;;1.80;;
46815;SDS011;32787;53.316;8.670;2023-07-13T10:21:36;8.18;;;2.33;;
46815;SDS011;32787;53.316;8.670;2023-07-13T10:24:10;8.18;;;2.08;;
46815;SDS011;32787;53.316;8.670;2023-07-13T10:32:16;7.75;;;2.00;;
46815;SDS011;32787;53.316;8.670;2023-07-13T10:37:18;5.75;;;1.73;;
46815;SDS011;32787;53.316;8.670;2023-07-13T10:39:46;6.57;;;1.90;;
46815;SDS011;32787;53.316;8.670;2023-07-13T10:42:14;7.03;;;1.70;;
46815;SDS011;32787;53.316;8.670;2023-07-13T10:44:46;7.82;;;1.88;;
46815;SDS011;32787;53.316;8.670;2023-07-13T10:47:13;7.50;;;1.95;;
46815;SDS011;32787;53.316;8.670;2023-07-13T10:49:40;10.10;;;1.85;;
46815;SDS011;32787;53.316;8.670;2023-07-13T10:52:28;6.07;;;2.28;;
46815;SDS011;32787;53.316;8.670;2023-07-13T10:57:59;6.22;;;1.70;;
46815;SDS011;32787;53.316;8.670;2023-07-13T11:00:25;6.85;;;2.00;;
46815;SDS011;32787;53.316;8.670;2023-07-13T11:02:58;5.05;;;1.67;;
46815;SDS011;32787;53.316;8.670;2023-07-13T11:05:31;7.93;;;2.28;;
46815;SDS011;32787;53.316;8.670;2023-07-13T11:10:49;6.10;;;2.10;;
46815;SDS011;32787;53.316;8.670;2023-07-13T11:16:34;8.30;;;1.98;;
46815;SDS011;32787;53.316;8.670;2023-07-13T11:28:03;9.07;;;2.30;;
46815;SDS011;32787;53.316;8.670;2023-07-13T11:35:36;6.97;;;1.65;;
46815;SDS011;32787;53.316;8.670;2023-07-13T11:41:07;6.47;;;1.75;;
46815;SDS011;32787;53.316;8.670;2023-07-13T11:43:44;5.30;;;1.60;;
46815;SDS011;32787;53.316;8.670;2023-07-13T11:46:20;4.70;;;1.30;;
46815;SDS011;32787;53.316;8.670;2023-07-13T11:48:48;2.80;;;1.13;;
46815;SDS011;32787;53.316;8.670;2023-07-13T11:51:18;5.00;;;1.30;;
46815;SDS011;32787;53.316;8.670;2023-07-13T11:53:45;3.30;;;1.40;;
46815;SDS011;32787;53.316;8.670;2023-07-13T11:56:12;5.57;;;1.20;;
46815;SDS011;32787;53.316;8.670;2023-07-13T11:58:38;4.75;;;1.35;;
46815;SDS011;32787;53.316;8.670;2023-07-13T12:01:04;3.97;;;1.20;;
46815;SDS011;32787;53.316;8.670;2023-07-13T12:03:31;3.63;;;1.00;;
46815;SDS011;32787;53.316;8.670;2023-07-13T12:06:03;2.78;;;1.02;;
46815;SDS011;32787;53.316;8.670;2023-07-13T12:08:43;2.67;;;0.93;;
46815;SDS011;32787;53.316;8.670;2023-07-13T12:11:15;3.63;;;1.25;;
46815;SDS011;32787;53.316;8.670;2023-07-13T12:13:43;3.42;;;1.20;;
46815;SDS011;32787;53.316;8.670;2023-07-13T12:16:32;3.45;;;1.15;;
46815;SDS011;32787;53.316;8.670;2023-07-13T12:18:58;4.60;;;1.25;;
46815;SDS011;32787;53.316;8.670;2023-07-13T12:21:33;3.65;;;1.20;;
46815;SDS011;32787;53.316;8.670;2023-07-13T12:24:03;3.50;;;1.38;;
46815;SDS011;32787;53.316;8.670;2023-07-13T12:26:30;4.05;;;1.33;;
46815;SDS011;32787;53.316;8.670;2023-07-13T12:28:58;3.47;;;1.30;;
46815;SDS011;32787;53.316;8.670;2023-07-13T12:31:30;4.43;;;1.50;;
46815;SDS011;32787;53.316;8.670;2023-07-13T12:34:10;6.47;;;1.63;;
46815;SDS011;32787;53.316;8.670;2023-07-13T12:36:40;5.95;;;1.90;;
46815;SDS011;32787;53.316;8.670;2023-07-13T12:45:03;5.28;;;1.75;;
46815;SDS011;32787;53.316;8.670;2023-07-13T12:47:41;5.35;;;1.58;;
46815;SDS011;32787;53.316;8.670;2023-07-13T12:50:12;6.00;;;2.17;;
46815;SDS011;32787;53.316;8.670;2023-07-13T12:52:49;5.97;;;1.80;;
46815;SDS011;32787;53.316;8.670;2023-07-13T12:55:19;5.38;;;2.17;;
46815;SDS011;32787;53.316;8.670;2023-07-13T12:57:53;7.43;;;1.90;;
46815;SDS011;32787;53.316;8.670;2023-07-13T13:02:58;4.72;;;1.90;;
46815;SDS011;32787;53.316;8.670;2023-07-13T13:05:28;5.93;;;1.65;;
46815;SDS011;32787;53.316;8.670;2023-07-13T13:07:55;5.43;;;1.40;;
46815;SDS011;32787;53.316;8.670;2023-07-13T13:10:22;4.03;;;1.15;;
46815;SDS011;32787;53.316;8.670;2023-07-13T13:12:47;2.55;;;1.05;;
46815;SDS011;32787;53.316;8.670;2023-07-13T13:15:13;2.70;;;0.70;;
46815;SDS011;32787;53.316;8.670;2023-07-13T13:17:39;2.72;;;1.10;;
46815;SDS011;32787;53.316;8.670;2023-07-13T13:20:38;2.53;;;0.90;;
46815;SDS011;32787;53.316;8.670;2023-07-13T13:22:57;3.08;;;0.93;;
46815;SDS011;32787;53.316;8.670;2023-07-13T13:25:22;2.13;;;0.70;;
46815;SDS011;32787;53.316;8.670;2023-07-13T13:27:48;2.38;;;0.70;;
46815;SDS011;32787;53.316;8.670;2023-07-13T13:30:15;1.60;;;0.70;;
46815;SDS011;32787;53.316;8.670;2023-07-13T13:32:43;1.50;;;0.70;;
46815;SDS011;32787;53.316;8.670;2023-07-13T13:35:19;2.50;;;0.90;;
46815;SDS011;32787;53.316;8.670;2023-07-13T13:37:46;1.80;;;0.60;;
46815;SDS011;32787;53.316;8.670;2023-07-13T13:40:21;2.00;;;0.73;;
46815;SDS011;32787;53.316;8.670;2023-07-13T13:42:51;1.63;;;0.68;;
46815;SDS011;32787;53.316;8.670;2023-07-13T13:45:18;3.88;;;0.70;;
46815;SDS011;32787;53.316;8.670;2023-07-13T13:47:46;3.72;;;0.90;;
46815;SDS011;32787;53.316;8.670;2023-07-13T13:50:14;2.15;;;0.80;;
46815;SDS011;32787;53.316;8.670;2023-07-13T13:52:42;3.17;;;1.10;;
46815;SDS011;32787;53.316;8.670;2023-07-13T13:55:12;3.67;;;1.20;;
46815;SDS011;32787;53.316;8.670;2023-07-13T13:57:39;3.03;;;0.90;;
46815;SDS011;32787;53.316;8.670;2023-07-13T14:00:05;3.90;;;1.10;;
46815;SDS011;32787;53.316;8.670;2023-07-13T14:02:31;6.28;;;0.82;;
46815;SDS011;32787;53.316;8.670;2023-07-13T14:04:58;2.78;;;1.17;;
46815;SDS011;32787;53.316;8.670;2023-07-13T14:07:26;3.85;;;1.30;;
46815;SDS011;32787;53.316;8.670;2023-07-13T14:09:55;1.92;;;1.10;;
46815;SDS011;32787;53.316;8.670;2023-07-13T14:12:23;4.05;;;1.40;;
46815;SDS011;32787;53.316;8.670;2023-07-13T14:14:53;3.42;;;1.48;;
46815;SDS011;32787;53.316;8.670;2023-07-13T14:17:20;3.72;;;1.40;;
46815;SDS011;32787;53.316;8.670;2023-07-13T14:19:49;5.22;;;1.30;;
46815;SDS011;32787;53.316;8.670;2023-07-13T14:22:16;5.53;;;1.70;;
46815;SDS011;32787;53.316;8.670;2023-07-13T14:24:43;5.40;;;1.70;;
46815;SDS011;32787;53.316;8.670;2023-07-13T14:27:12;5.25;;;1.80;;
46815;SDS011;32787;53.316;8.670;2023-07-13T14:29:38;3.55;;;1.55;;
46815;SDS011;32787;53.316;8.670;2023-07-13T14:32:05;8.60;;;2.00;;
46815;SDS011;32787;53.316;8.670;2023-07-13T14:34:33;6.65;;;1.80;;
46815;SDS011;32787;53.316;8.670;2023-07-13T14:36:59;5.13;;;1.95;;
46815;SDS011;32787;53.316;8.670;2023-07-13T14:39:24;8.43;;;3.55;;
46815;SDS011;32787;53.316;8.670;2023-07-13T14:41:51;5.68;;;2.00;;
46815;SDS011;32787;53.316;8.670;2023-07-13T14:44:20;5.18;;;2.22;;
46815;SDS011;32787;53.316;8.670;2023-07-13T14:46:48;5.68;;;2.28;;
46815;SDS011;32787;53.316;8.670;2023-07-13T14:51:54;5.38;;;1.95;;
46815;SDS011;32787;53.316;8.670;2023-07-13T14:54:22;4.85;;;2.30;;
46815;SDS011;32787;53.316;8.670;2023-07-13T14:56:49;5.07;;;2.30;;
46815;SDS011;32787;53.316;8.670;2023-07-13T14:59:15;4.78;;;2.13;;
46815;SDS011;32787;53.316;8.670;2023-07-13T15:01:43;4.43;;;2.20;;
46815;SDS011;32787;53.316;8.670;2023-07-13T15:04:10;7.30;;;2.33;;
46815;SDS011;32787;53.316;8.670;2023-07-13T15:09:25;2.92;;;1.17;;
46815;SDS011;32787;53.316;8.670;2023-07-13T15:11:55;4.60;;;1.50;;
46815;SDS011;32787;53.316;8.670;2023-07-13T15:14:21;3.88;;;1.40;;
46815;SDS011;32787;53.316;8.670;2023-07-13T15:16:49;4.28;;;1.60;;
46815;SDS011;32787;53.316;8.670;2023-07-13T15:19:17;5.30;;;2.08;;
46815;SDS011;32787;53.316;8.670;2023-07-13T15:21:43;4.90;;;1.85;;
46815;SDS011;32787;53.316;8.670;2023-07-13T15:24:11;5.18;;;2.00;;
46815;SDS011;32787;53.316;8.670;2023-07-13T15:26:38;4.32;;;1.70;;
46815;SDS011;32787;53.316;8.670;2023-07-13T15:29:04;7.25;;;2.10;;
46815;SDS011;32787;53.316;8.670;2023-07-13T15:31:29;5.38;;;2.08;;
46815;SDS011;32787;53.316;8.670;2023-07-13T15:33:57;6.55;;;2.05;;
46815;SDS011;32787;53.316;8.670;2023-07-13T15:36:24;4.80;;;2.40;;
46815;SDS011;32787;53.316;8.670;2023-07-13T15:38:53;5.97;;;2.53;;
46815;SDS011;32787;53.316;8.670;2023-07-13T15:41:24;4.70;;;2.55;;
46815;SDS011;32787;53.316;8.670;2023-07-13T15:43:52;6.75;;;2.58;;
46815;SDS011;32787;53.316;8.670;2023-07-13T15:46:23;5.35;;;2.60;;
46815;SDS011;32787;53.316;8.670;2023-07-13T15:48:50;8.95;;;2.60;;
46815;SDS011;32787;53.316;8.670;2023-07-13T15:51:20;6.40;;;2.38;;
46815;SDS011;32787;53.316;8.670;2023-07-13T15:53:46;5.70;;;2.40;;
46815;SDS011;32787;53.316;8.670;2023-07-13T15:56:17;4.43;;;1.60;;
46815;SDS011;32787;53.316;8.670;2023-07-13T15:58:48;3.40;;;1.42;;
46815;SDS011;32787;53.316;8.670;2023-07-13T16:01:15;4.22;;;1.50;;